createdAt,value
2022-10-31T00:01:03.645Z,97.50
2022-10-31T00:03:31.016Z,98.96
2022-10-31T00:05:59.647Z,98.77
2022-10-31T00:08:29.216Z,99.47
2022-10-31T00:10:57.557Z,99.07
2022-10-31T00:13:24.857Z,99.27
2022-10-31T00:15:55.948Z,99.29
2022-10-31T00:18:25.246Z,99.41
2022-10-31T00:21:02.951Z,99.30
2022-10-31T00:23:31.552Z,99.30
2022-10-31T00:26:05.243Z,99.89
2022-10-31T00:28:33.304Z,100.00
2022-10-31T00:31:05.467Z,100.00
2022-10-31T00:33:37.734Z,100.00
2022-10-31T00:36:06.048Z,100.00
2022-10-31T00:38:35.591Z,100.00
2022-10-31T00:41:04.868Z,100.00
2022-10-31T00:43:39.489Z,100.00
2022-10-31T00:46:07.155Z,100.00
2022-10-31T00:48:34.725Z,100.00
2022-10-31T00:51:02.181Z,100.00
2022-10-31T00:53:29.651Z,100.00
2022-10-31T00:55:57.112Z,100.00
2022-10-31T00:58:24.652Z,100.00
2022-10-31T01:00:56.471Z,100.00
2022-10-31T01:03:26.110Z,100.00
2022-10-31T01:06:01.126Z,100.00
2022-10-31T01:08:32.074Z,100.00
2022-10-31T01:11:04.959Z,100.00
2022-10-31T01:13:34.203Z,100.00
2022-10-31T01:16:03.652Z,100.00
2022-10-31T01:18:31.183Z,100.00
2022-10-31T01:21:00.214Z,100.00
2022-10-31T01:23:28.044Z,100.00
2022-10-31T01:26:01.848Z,100.00
2022-10-31T01:28:29.353Z,100.00
2022-10-31T01:30:56.717Z,100.00
2022-10-31T01:33:24.494Z,100.00
2022-10-31T01:35:51.797Z,100.00
2022-10-31T01:38:19.625Z,100.00
2022-10-31T01:40:47.068Z,100.00
2022-10-31T01:43:14.587Z,100.00
2022-10-31T01:45:42.844Z,100.00
2022-10-31T01:48:13.058Z,100.00
2022-10-31T01:50:40.419Z,100.00
2022-10-31T01:53:07.817Z,100.00
2022-10-31T01:55:35.813Z,100.00
2022-10-31T01:58:05.088Z,100.00
2022-10-31T02:00:33.312Z,100.00
2022-10-31T02:03:01.464Z,100.00
2022-10-31T02:05:29.580Z,100.00
2022-10-31T02:08:03.922Z,100.00
2022-10-31T02:10:32.652Z,100.00
2022-10-31T02:13:01.314Z,100.00
2022-10-31T02:15:29.321Z,100.00
2022-10-31T02:17:56.870Z,100.00
2022-10-31T02:20:25.206Z,100.00
2022-10-31T02:22:52.451Z,100.00
2022-10-31T02:25:26.119Z,100.00
2022-10-31T02:28:13.416Z,100.00
2022-10-31T02:31:01.736Z,100.00
2022-10-31T02:33:47.141Z,100.00
2022-10-31T02:36:21.977Z,100.00
2022-10-31T02:38:58.209Z,100.00
2022-10-31T02:41:42.592Z,100.00
2022-10-31T02:44:15.037Z,100.00
2022-10-31T02:46:51.324Z,100.00
2022-10-31T02:49:22.726Z,100.00
2022-10-31T02:51:50.303Z,100.00
2022-10-31T02:54:22.625Z,100.00
2022-10-31T02:56:58.687Z,100.00
2022-10-31T02:59:26.398Z,100.00
2022-10-31T03:01:54.022Z,100.00
2022-10-31T03:04:40.604Z,100.00
2022-10-31T03:07:07.964Z,100.00
2022-10-31T03:09:39.872Z,100.00
2022-10-31T03:12:11.985Z,100.00
2022-10-31T03:14:40.898Z,100.00
2022-10-31T03:17:08.829Z,100.00
2022-10-31T03:19:40.703Z,100.00
2022-10-31T03:22:11.500Z,100.00
2022-10-31T03:24:39.804Z,100.00
2022-10-31T03:27:07.966Z,100.00
2022-10-31T03:29:35.956Z,100.00
2022-10-31T03:32:09.414Z,100.00
2022-10-31T03:34:37.481Z,100.00
2022-10-31T03:37:05.952Z,100.00
2022-10-31T03:39:33.513Z,100.00
2022-10-31T03:42:01.606Z,100.00
2022-10-31T03:44:29.751Z,100.00
2022-10-31T03:47:01.397Z,100.00
2022-10-31T03:49:29.104Z,100.00
2022-10-31T03:52:00.124Z,100.00
2022-10-31T03:54:27.766Z,100.00
2022-10-31T03:57:22.456Z,100.00
2022-10-31T03:59:55.753Z,100.00
2022-10-31T04:02:26.415Z,100.00
2022-10-31T04:04:54.451Z,100.00
2022-10-31T04:07:21.789Z,100.00
2022-10-31T04:09:53.937Z,100.00
2022-10-31T04:12:22.391Z,100.00
2022-10-31T04:15:16.156Z,100.00
2022-10-31T04:17:43.953Z,100.00
2022-10-31T04:20:11.790Z,100.00
2022-10-31T04:22:42.894Z,100.00
2022-10-31T04:25:10.285Z,100.00
2022-10-31T04:27:39.453Z,100.00
2022-10-31T17:58:30.459Z,61.84
2022-10-31T18:00:58.150Z,60.85
2022-10-31T18:03:25.807Z,62.26
2022-10-31T18:05:54.273Z,62.23
2022-10-31T18:08:24.803Z,63.23
2022-10-31T18:10:53.095Z,63.60
2022-10-31T18:13:22.835Z,62.32
2022-10-31T18:15:50.241Z,64.11
2022-10-31T18:18:18.712Z,63.89
2022-10-31T18:20:46.390Z,62.74
2022-10-31T18:23:13.945Z,64.31
2022-10-31T18:25:43.548Z,64.64
2022-10-31T18:28:10.991Z,64.73
2022-10-31T18:30:41.793Z,64.85
2022-10-31T18:33:09.279Z,63.74
2022-10-31T18:35:38.031Z,63.87
2022-10-31T18:38:06.371Z,64.14
2022-10-31T18:40:35.366Z,63.06
2022-10-31T18:43:03.037Z,63.07
2022-10-31T18:45:41.721Z,62.75
2022-10-31T18:48:14.798Z,64.36
2022-10-31T18:50:42.662Z,64.27
2022-10-31T18:53:10.109Z,64.29
2022-10-31T19:00:11.997Z,64.16
2022-10-31T19:02:40.931Z,63.77
2022-10-31T19:05:08.238Z,64.39
2022-10-31T19:07:35.869Z,65.00
2022-10-31T19:10:03.386Z,65.17
2022-10-31T19:12:33.071Z,65.14
2022-10-31T19:15:01.232Z,64.99
2022-10-31T19:17:28.556Z,65.07
2022-10-31T19:19:58.006Z,65.71
2022-10-31T19:22:25.702Z,66.47
2022-10-31T19:24:53.072Z,65.36
2022-10-31T19:27:20.738Z,66.23
2022-10-31T19:29:48.068Z,65.64
2022-10-31T19:32:16.224Z,65.12
2022-10-31T19:34:43.620Z,65.32
2022-10-31T19:37:11.341Z,66.95
2022-10-31T19:39:43.635Z,67.05
2022-10-31T19:42:11.859Z,67.72
2022-10-31T19:44:39.267Z,67.80
2022-10-31T19:47:06.768Z,68.39
2022-10-31T19:49:34.241Z,68.37
2022-10-31T19:56:27.047Z,68.05
2022-10-31T19:58:54.409Z,67.26
2022-10-31T20:01:30.674Z,67.27
2022-10-31T20:04:02.206Z,66.29
2022-10-31T20:06:31.183Z,65.57
2022-10-31T20:08:58.757Z,66.88
2022-10-31T20:11:32.358Z,67.83
2022-10-31T20:41:06.636Z,73.55
2022-10-31T20:43:34.616Z,72.09
2022-10-31T20:46:02.286Z,73.85
2022-10-31T20:48:30.742Z,72.88
2022-10-31T20:51:01.773Z,72.20
2022-10-31T20:53:30.026Z,72.28
2022-10-31T20:56:07.186Z,72.59
2022-10-31T20:58:35.897Z,73.61
2022-10-31T21:01:03.747Z,72.59
2022-10-31T21:03:31.318Z,74.54
2022-10-31T21:05:59.781Z,72.74
2022-10-31T21:08:28.448Z,74.21
2022-10-31T21:10:55.914Z,74.57
2022-10-31T21:13:23.919Z,75.67
2022-10-31T21:16:01.909Z,77.86
2022-10-31T21:18:29.769Z,77.50
2022-10-31T21:21:02.207Z,79.64
2022-10-31T21:23:30.090Z,77.88
2022-10-31T21:25:57.610Z,77.91
2022-10-31T21:28:25.453Z,78.03
2022-10-31T21:30:52.894Z,80.04
2022-10-31T21:33:20.393Z,79.43
2022-10-31T21:35:51.875Z,81.01
2022-10-31T21:43:12.075Z,81.68
